createdAt,value
2022-10-11T00:00:31.451Z,96.21
2022-10-11T00:01:31.471Z,96.31
2022-10-11T00:02:31.407Z,96.52
2022-10-11T00:03:31.377Z,96.73
2022-10-11T00:04:31.385Z,96.62
2022-10-11T00:05:31.381Z,96.31
2022-10-11T00:06:31.356Z,96.52
2022-10-11T00:07:31.335Z,96.73
2022-10-11T00:08:31.338Z,96.42
2022-10-11T00:09:31.321Z,96.73
2022-10-11T00:10:31.315Z,96.83
2022-10-11T00:11:31.315Z,96.42
2022-10-11T00:12:31.297Z,96.42
2022-10-11T00:13:31.271Z,96.52
2022-10-11T00:14:31.269Z,96.62
2022-10-11T00:15:31.250Z,96.62
2022-10-11T00:16:31.280Z,95.45
2022-10-11T00:17:31.230Z,94.97
2022-10-11T00:18:31.231Z,94.56
2022-10-11T00:19:31.212Z,94.67
2022-10-11T00:20:31.218Z,94.77
2022-10-11T00:21:31.211Z,94.77
2022-10-11T00:22:31.184Z,94.87
2022-10-11T00:23:31.162Z,95.18
2022-10-11T00:24:31.179Z,95.28
2022-10-11T00:25:31.142Z,95.90
2022-10-11T00:26:31.143Z,96.11
2022-10-11T00:27:31.162Z,96.01
2022-10-11T00:28:31.244Z,95.49
2022-10-11T00:29:31.107Z,95.59
2022-10-11T00:30:31.105Z,95.80
2022-10-11T00:31:35.536Z,95.39
2022-10-11T00:32:31.104Z,95.90
2022-10-11T00:33:31.058Z,95.80
2022-10-11T00:34:31.084Z,95.80
2022-10-11T00:35:31.035Z,96.31
2022-10-11T00:36:31.038Z,96.21
2022-10-11T00:37:31.049Z,95.49
2022-10-11T00:38:32.049Z,94.97
2022-10-11T00:39:30.994Z,95.18
2022-10-11T00:40:30.999Z,95.18
2022-10-11T00:41:30.970Z,95.28
2022-10-11T00:42:30.981Z,95.39
2022-10-11T00:43:30.974Z,95.80
2022-10-11T00:44:30.958Z,95.59
2022-10-11T00:45:30.930Z,96.01
2022-10-11T00:46:30.939Z,96.01
2022-10-11T00:47:30.919Z,96.36
2022-10-11T00:48:30.942Z,96.47
2022-10-11T00:49:30.885Z,96.56
2022-10-11T00:50:30.893Z,96.77
2022-10-11T00:51:30.947Z,96.77
2022-10-11T00:52:30.875Z,96.77
2022-10-11T00:53:30.903Z,97.19
2022-10-11T00:54:30.848Z,97.29
2022-10-11T00:55:30.824Z,96.77
2022-10-11T00:56:30.827Z,96.72
2022-10-11T00:57:30.821Z,97.44
2022-10-11T00:58:30.804Z,97.33
2022-10-11T00:59:30.804Z,97.44
2022-10-11T01:00:30.789Z,97.44
2022-10-11T01:01:30.783Z,96.82
2022-10-11T01:02:30.763Z,96.92
2022-10-11T01:03:30.743Z,96.20
2022-10-11T01:04:30.763Z,96.15
2022-10-11T01:05:30.831Z,95.43
2022-10-11T01:06:30.718Z,95.22
2022-10-11T01:07:30.698Z,95.12
2022-10-11T01:08:30.713Z,95.68
2022-10-11T01:09:30.699Z,95.95
2022-10-11T01:10:30.678Z,96.05
2022-10-11T01:11:30.655Z,96.05
2022-10-11T01:12:30.657Z,95.99
2022-10-11T01:13:30.643Z,96.20
2022-10-11T01:14:30.643Z,96.51
2022-10-11T01:15:30.628Z,96.20
2022-10-11T01:16:30.611Z,96.30
2022-10-11T01:17:30.598Z,96.30
2022-10-11T01:18:30.594Z,96.20
2022-10-11T01:19:30.566Z,96.26
2022-10-11T01:20:30.600Z,95.64
2022-10-11T01:21:30.546Z,94.81
2022-10-11T01:22:30.547Z,94.71
2022-10-11T01:23:30.527Z,95.12
2022-10-11T01:24:30.532Z,95.53
2022-10-11T01:25:30.560Z,95.27
2022-10-11T01:26:30.513Z,95.48
2022-10-11T01:27:30.482Z,96.03
2022-10-11T01:28:30.535Z,96.86
2022-10-11T01:29:30.469Z,97.17
2022-10-11T01:30:30.466Z,97.28
2022-10-11T01:31:30.457Z,97.17
2022-10-11T01:32:30.447Z,96.86
2022-10-11T01:33:30.428Z,96.51
2022-10-11T01:34:30.424Z,95.89
2022-10-11T01:35:30.400Z,95.89
2022-10-11T01:36:30.430Z,95.94
2022-10-11T01:37:30.381Z,95.78
2022-10-11T01:38:30.393Z,95.42
2022-10-11T01:39:30.373Z,95.42
2022-10-11T01:40:30.365Z,95.73
2022-10-11T01:41:30.366Z,96.03
2022-10-11T01:42:30.349Z,96.34
2022-10-11T01:43:30.320Z,96.39
2022-10-11T01:44:30.318Z,97.11
2022-10-11T01:45:30.301Z,97.32
2022-10-11T01:46:30.288Z,98.05
2022-10-11T01:47:30.314Z,98.09
2022-10-11T01:48:30.312Z,97.99
2022-10-11T01:49:30.256Z,98.30
2022-10-11T01:50:30.255Z,97.94
2022-10-11T01:51:30.236Z,98.15
2022-10-11T01:52:30.259Z,97.84
2022-10-11T01:53:30.213Z,97.74
2022-10-11T01:54:49.811Z,97.74
2022-10-11T01:55:30.199Z,97.79
2022-10-11T01:56:30.200Z,97.79
2022-10-11T01:57:30.209Z,97.53
2022-10-11T01:58:30.169Z,97.53
2022-10-11T01:59:30.145Z,97.28
2022-10-11T02:00:30.149Z,97.49
2022-10-11T02:01:30.179Z,97.49
2022-10-11T02:02:30.128Z,96.66
2022-10-11T02:03:30.122Z,96.08
2022-10-11T02:04:30.124Z,96.39
2022-10-11T02:05:30.083Z,97.01
2022-10-11T02:06:30.084Z,97.11
2022-10-11T02:07:30.073Z,97.32
2022-10-11T02:08:30.090Z,97.22
2022-10-11T02:09:30.038Z,97.22
2022-10-11T02:10:30.043Z,97.32
2022-10-11T02:11:30.027Z,97.32
2022-10-11T02:12:30.019Z,97.01
2022-10-11T02:13:30.026Z,96.80
2022-10-11T02:14:29.999Z,96.80
2022-10-11T02:15:29.982Z,96.59
2022-10-11T02:16:29.978Z,97.01
2022-10-11T02:17:29.953Z,97.01
2022-10-11T02:18:29.956Z,97.11
2022-10-11T02:19:30.081Z,97.22
2022-10-11T02:20:29.945Z,97.01
2022-10-11T02:21:29.911Z,96.70
2022-10-11T02:22:29.924Z,96.49
2022-10-11T02:23:29.889Z,96.08
2022-10-11T02:24:29.923Z,96.49
2022-10-11T02:25:29.882Z,96.70
2022-10-11T02:26:29.876Z,96.39
2022-10-11T02:27:29.854Z,96.80
2022-10-11T02:28:29.923Z,97.01
2022-10-11T02:29:29.881Z,97.22
2022-10-11T02:30:29.836Z,97.78
2022-10-11T02:31:29.807Z,97.42
2022-10-11T02:32:29.812Z,97.53
2022-10-11T02:33:29.797Z,97.53
2022-10-11T02:34:29.790Z,97.42
2022-10-11T02:35:29.784Z,97.32
2022-10-11T02:36:29.782Z,97.01
2022-10-11T02:37:29.751Z,96.54
2022-10-11T02:38:29.756Z,96.64
2022-10-11T02:39:29.722Z,96.54
2022-10-11T02:40:29.748Z,96.75
2022-10-11T02:41:29.714Z,96.54
2022-10-11T02:42:29.712Z,96.44
2022-10-11T02:43:29.696Z,96.23
2022-10-11T02:44:29.692Z,96.44
2022-10-11T02:45:29.683Z,96.49
2022-10-11T02:46:29.662Z,96.44
2022-10-11T02:47:29.645Z,96.54
2022-10-11T02:48:29.643Z,96.19
2022-10-11T02:49:29.732Z,95.77
2022-10-11T02:50:29.616Z,95.98
2022-10-11T02:51:29.616Z,95.77
2022-10-11T02:52:29.607Z,95.56
2022-10-11T02:53:29.577Z,95.56
2022-10-11T02:54:29.577Z,96.02
2022-10-11T02:55:29.554Z,96.02
2022-10-11T02:56:29.572Z,96.12
2022-10-11T02:57:29.536Z,96.12
2022-10-11T02:58:29.543Z,96.33
2022-10-11T02:59:29.513Z,96.23
2022-10-11T03:00:29.511Z,96.54
2022-10-11T03:01:29.588Z,96.08
2022-10-11T03:02:29.491Z,95.61
2022-10-11T03:03:29.475Z,95.50
2022-10-11T03:04:29.470Z,95.56
2022-10-11T03:05:29.445Z,94.94
2022-10-11T03:06:29.448Z,95.25
2022-10-11T03:07:29.453Z,95.46
2022-10-11T03:08:29.426Z,95.25
2022-10-11T03:09:29.408Z,95.15
2022-10-11T03:10:29.411Z,94.84
2022-10-11T03:11:29.385Z,95.25
2022-10-11T03:12:29.413Z,95.09
2022-10-11T03:13:29.366Z,95.19
2022-10-11T03:14:29.372Z,95.40
2022-10-11T03:15:29.344Z,95.40
2022-10-11T03:16:29.344Z,95.61
2022-10-11T03:17:36.467Z,95.81
2022-10-11T03:18:29.332Z,95.92
2022-10-11T03:19:29.306Z,95.50
2022-10-11T03:20:29.303Z,95.09
2022-10-11T03:21:29.278Z,94.98
2022-10-11T03:22:29.287Z,95.19
2022-10-11T03:23:29.276Z,95.29
2022-10-11T03:24:29.262Z,95.09
2022-10-11T03:25:29.243Z,95.29
2022-10-11T03:26:29.251Z,95.50
2022-10-11T03:27:29.222Z,95.40
2022-10-11T03:28:29.296Z,95.81
2022-10-11T03:29:29.189Z,96.23
2022-10-11T03:30:29.199Z,97.16
2022-10-11T03:31:29.189Z,97.57
2022-10-11T03:32:29.162Z,97.36
2022-10-11T03:33:29.224Z,97.26
2022-10-11T03:34:29.141Z,96.54
2022-10-11T03:35:29.146Z,96.23
2022-10-11T03:36:29.141Z,95.61
2022-10-11T03:37:29.127Z,95.40
2022-10-11T03:38:29.099Z,95.29
2022-10-11T03:39:29.130Z,95.61
2022-10-11T03:40:29.093Z,95.81
2022-10-11T03:41:29.092Z,95.54
2022-10-11T03:42:29.120Z,95.54
2022-10-11T03:43:29.065Z,95.54
2022-10-11T03:44:29.080Z,95.75
2022-10-11T03:45:29.048Z,96.37
2022-10-11T03:46:29.023Z,95.96
2022-10-11T03:47:29.043Z,95.44
2022-10-11T03:48:28.994Z,94.98
2022-10-11T03:49:29.042Z,94.68
2022-10-11T03:50:28.978Z,94.10
2022-10-11T03:51:28.986Z,94.31
2022-10-11T03:52:28.958Z,95.03
2022-10-11T03:53:28.955Z,94.93
2022-10-11T03:54:28.941Z,95.14
2022-10-11T03:55:28.957Z,95.29
2022-10-11T03:56:28.908Z,94.98
2022-10-11T03:57:28.955Z,93.89
2022-10-11T03:58:28.899Z,94.72
2022-10-11T03:59:28.897Z,94.47
2022-10-11T04:00:28.887Z,94.47
2022-10-11T04:01:28.922Z,93.95
2022-10-11T04:02:28.848Z,93.74
2022-10-11T04:03:28.847Z,93.85
2022-10-11T04:04:28.830Z,93.54
2022-10-11T04:05:28.856Z,93.54
2022-10-11T04:06:28.802Z,93.54
2022-10-11T04:07:28.806Z,93.74
2022-10-11T04:08:28.783Z,94.47
2022-10-11T04:09:28.802Z,93.85
2022-10-11T04:10:28.761Z,93.54
2022-10-11T04:11:28.809Z,93.43
2022-10-11T04:12:28.735Z,93.54
2022-10-11T04:13:28.744Z,93.06
2022-10-11T04:14:28.729Z,93.68
2022-10-11T04:15:28.736Z,93.58
2022-10-11T04:16:28.740Z,93.89
2022-10-11T04:17:28.698Z,94.56
2022-10-11T04:18:28.673Z,94.87
2022-10-11T04:19:28.683Z,94.97
2022-10-11T04:20:28.656Z,95.18
2022-10-11T04:21:28.664Z,95.39
2022-10-11T04:22:28.679Z,95.39
2022-10-11T04:23:28.639Z,95.07
2022-10-11T04:24:28.636Z,94.87
2022-10-11T04:25:28.621Z,95.39
2022-10-11T04:26:28.598Z,94.35
2022-10-11T04:27:28.605Z,93.93
2022-10-11T04:28:28.673Z,94.04
2022-10-11T04:29:32.309Z,94.35
2022-10-11T04:30:28.573Z,94.45
2022-10-11T04:31:28.552Z,94.35
2022-10-11T04:32:28.532Z,94.24
2022-10-11T04:33:28.530Z,94.24
2022-10-11T04:34:28.538Z,94.24
2022-10-11T04:35:28.518Z,94.35
2022-10-11T04:36:28.498Z,94.45
2022-10-11T04:37:28.495Z,94.45
2022-10-11T04:38:28.458Z,94.35
2022-10-11T04:39:28.463Z,94.35
2022-10-11T04:40:28.471Z,94.24
2022-10-11T04:41:28.448Z,94.18
2022-10-11T04:42:28.427Z,94.45
2022-10-11T04:43:28.422Z,94.24
2022-10-11T04:44:28.398Z,94.29
2022-10-11T04:45:28.398Z,94.49
2022-10-11T04:46:28.403Z,94.76
2022-10-11T04:47:28.382Z,94.39
2022-10-11T04:48:28.354Z,94.60
2022-10-11T04:49:28.369Z,94.81
2022-10-11T04:50:28.332Z,94.70
2022-10-11T04:51:28.338Z,94.56
2022-10-11T04:52:28.340Z,94.87
2022-10-11T04:53:28.312Z,94.56
2022-10-11T04:54:28.292Z,94.35
2022-10-11T04:55:28.300Z,94.49
2022-10-11T04:56:28.266Z,94.29
2022-10-11T04:57:28.271Z,94.81
2022-10-11T04:58:28.278Z,95.32
2022-10-11T04:59:28.254Z,95.07
2022-10-11T05:00:28.226Z,94.24
2022-10-11T05:01:28.232Z,94.24
2022-10-11T05:02:28.325Z,94.35
2022-10-11T05:03:28.206Z,94.24
2022-10-11T05:04:28.211Z,94.04
2022-10-11T05:05:28.186Z,93.52
2022-10-11T05:06:28.166Z,93.52
2022-10-11T05:07:28.166Z,93.41
2022-10-11T05:08:28.144Z,93.73
2022-10-11T05:09:28.161Z,93.93
2022-10-11T05:10:28.145Z,93.62
2022-10-11T05:11:28.124Z,93.41
2022-10-11T05:12:28.097Z,93.35
2022-10-11T05:13:28.105Z,93.56
2022-10-11T05:14:28.076Z,93.66
2022-10-11T05:15:28.106Z,93.98
2022-10-11T05:16:28.064Z,94.18
2022-10-11T05:17:28.075Z,94.29
2022-10-11T05:18:28.035Z,93.98
2022-10-11T05:19:28.040Z,94.08
2022-10-11T05:20:28.018Z,94.18
2022-10-11T05:21:28.041Z,94.18
2022-10-11T05:22:27.999Z,93.77
2022-10-11T05:23:27.996Z,93.66
2022-10-11T05:24:27.977Z,93.77
2022-10-11T05:25:27.980Z,93.66
2022-10-11T05:26:27.984Z,93.81
2022-10-11T05:27:27.962Z,94.18
2022-10-11T05:28:27.975Z,94.29
2022-10-11T05:29:27.933Z,94.29
2022-10-11T05:30:27.925Z,94.49
2022-10-11T05:31:27.912Z,94.29
2022-10-11T05:32:28.266Z,93.98
2022-10-11T05:33:27.892Z,94.08
2022-10-11T05:34:27.865Z,94.08
2022-10-11T05:35:27.892Z,94.08
2022-10-11T05:36:27.869Z,94.49
2022-10-11T05:37:27.875Z,93.77
2022-10-11T05:38:27.825Z,93.66
2022-10-11T05:39:27.841Z,93.66
2022-10-11T05:40:27.892Z,93.81
2022-10-11T05:41:27.804Z,94.02
2022-10-11T05:42:27.807Z,94.33
2022-10-11T05:43:27.807Z,94.74
2022-10-11T05:44:27.795Z,94.79
2022-10-11T05:45:27.765Z,95.20
2022-10-11T05:46:27.738Z,94.58
2022-10-11T05:47:27.748Z,94.89
2022-10-11T05:48:27.748Z,95.20
2022-10-11T05:49:27.724Z,95.20
2022-10-11T05:50:27.711Z,95.20
2022-10-11T05:51:27.705Z,95.41
2022-10-11T05:52:27.681Z,95.41
2022-10-11T05:53:27.683Z,95.62
2022-10-11T05:54:27.682Z,95.83
2022-10-11T05:55:27.665Z,95.62
2022-10-11T05:56:27.634Z,95.31
2022-10-11T05:57:27.637Z,95.10
2022-10-11T05:58:27.615Z,95.41
2022-10-11T05:59:27.639Z,95.62
2022-10-11T06:00:27.593Z,95.72
2022-10-11T06:01:27.681Z,95.10
2022-10-11T06:02:27.573Z,95.20
2022-10-11T06:03:27.572Z,95.31
2022-10-11T06:04:27.551Z,95.06
2022-10-11T06:05:27.587Z,94.95
2022-10-11T06:06:27.533Z,95.10
2022-10-11T06:07:27.538Z,95.62
2022-10-11T06:08:27.518Z,95.57
2022-10-11T06:09:27.512Z,95.26
2022-10-11T06:10:27.532Z,95.37
2022-10-11T06:11:27.490Z,95.47
2022-10-11T06:12:27.469Z,95.37
2022-10-11T06:13:27.467Z,95.37
2022-10-11T06:14:27.446Z,95.47
2022-10-11T06:15:27.451Z,95.47
2022-10-11T06:16:27.448Z,95.22
2022-10-11T06:17:27.425Z,95.01
2022-10-11T06:18:27.403Z,94.49
2022-10-11T06:19:27.405Z,94.18
2022-10-11T06:20:27.446Z,94.49
2022-10-11T06:21:27.428Z,94.91
2022-10-11T06:22:27.365Z,95.32
2022-10-11T06:23:27.367Z,95.32
2022-10-11T06:24:27.359Z,95.01
2022-10-11T06:25:27.341Z,94.91
2022-10-11T06:26:27.318Z,94.81
2022-10-11T06:27:27.341Z,95.22
2022-10-11T06:28:27.373Z,95.22
2022-10-11T06:29:27.304Z,95.43
2022-10-11T06:30:27.380Z,95.43
2022-10-11T06:31:27.286Z,95.84
2022-10-11T06:32:27.277Z,95.43
2022-10-11T06:33:27.257Z,96.05
2022-10-11T06:34:27.238Z,95.84
2022-10-11T06:35:27.242Z,95.70
2022-10-11T06:36:27.220Z,95.90
2022-10-11T06:37:27.215Z,96.42
2022-10-11T06:38:27.220Z,96.11
2022-10-11T06:39:27.192Z,96.42
2022-10-11T06:40:27.250Z,96.17
2022-10-11T06:41:27.189Z,96.17
2022-10-11T06:42:27.149Z,96.17
2022-10-11T06:43:27.179Z,96.17
2022-10-11T06:44:27.131Z,95.65
2022-10-11T06:45:27.127Z,95.54
2022-10-11T06:46:27.112Z,95.75
2022-10-11T06:47:27.116Z,95.54
2022-10-11T06:48:27.084Z,95.96
2022-10-11T06:49:27.108Z,96.48
2022-10-11T06:50:47.538Z,96.79
2022-10-11T06:51:27.073Z,97.10
2022-10-11T06:52:27.046Z,97.16
2022-10-11T06:53:27.052Z,97.06
2022-10-11T06:54:27.053Z,96.85
2022-10-11T06:55:27.028Z,97.36
2022-10-11T06:56:27.002Z,97.16
2022-10-11T06:57:27.005Z,97.06
2022-10-11T06:58:26.999Z,96.95
2022-10-11T06:59:26.990Z,97.06
2022-10-11T07:00:26.979Z,97.57
2022-10-11T07:01:27.076Z,98.56
2022-10-11T07:02:26.938Z,99.08
2022-10-11T07:03:26.943Z,98.66
2022-10-11T07:04:26.916Z,98.52
2022-10-11T07:05:26.942Z,98.31
2022-10-11T07:06:26.897Z,98.21
2022-10-11T07:07:26.896Z,98.21
2022-10-11T07:08:26.877Z,98.21
2022-10-11T07:09:26.874Z,98.00
2022-10-11T07:10:26.852Z,97.49
2022-10-11T07:11:26.873Z,97.69
2022-10-11T07:12:26.838Z,97.75
2022-10-11T07:13:26.838Z,97.85
2022-10-11T07:14:26.811Z,97.96
2022-10-11T07:15:26.814Z,97.96
2022-10-11T07:16:26.817Z,98.68
2022-10-11T07:17:26.794Z,99.35
2022-10-11T07:18:26.766Z,99.99
2022-10-11T07:19:26.777Z,99.93
2022-10-11T07:20:26.744Z,99.99
2022-10-11T07:21:26.748Z,99.99
2022-10-11T07:22:26.747Z,99.88
2022-10-11T07:23:26.753Z,99.78
2022-10-11T07:24:26.705Z,99.52
2022-10-11T07:25:26.707Z,99.63
2022-10-11T07:26:26.706Z,99.52
2022-10-11T07:27:26.693Z,99.43
2022-10-11T07:28:26.860Z,99.58
2022-10-11T07:29:26.665Z,99.79
2022-10-11T07:30:26.642Z,99.43
2022-10-11T07:31:26.687Z,99.23
2022-10-11T07:32:26.617Z,98.61
2022-10-11T07:33:26.654Z,98.82
2022-10-11T07:34:26.602Z,98.82
2022-10-11T07:35:26.634Z,97.53
2022-10-11T07:36:26.743Z,96.81
2022-10-11T07:37:26.585Z,96.92
2022-10-11T07:38:26.562Z,97.43
2022-10-11T07:39:26.586Z,97.43
2022-10-11T07:40:26.544Z,97.13
2022-10-11T07:41:26.538Z,97.39
2022-10-11T07:42:26.515Z,97.18
2022-10-11T07:43:26.518Z,97.08
2022-10-11T07:44:26.520Z,97.39
2022-10-11T07:45:26.504Z,97.80
2022-10-11T07:46:26.475Z,97.80
2022-10-11T07:47:26.475Z,97.55
2022-10-11T07:48:26.464Z,97.44
2022-10-11T07:49:26.440Z,97.96
2022-10-11T07:50:26.461Z,97.44
2022-10-11T07:51:26.421Z,96.62
2022-10-11T07:52:26.422Z,96.11
2022-10-11T07:53:26.397Z,96.11
2022-10-11T07:54:26.401Z,95.65
2022-10-11T07:55:26.409Z,96.68
2022-10-11T07:56:26.385Z,96.89
2022-10-11T07:57:26.365Z,95.75
2022-10-11T07:58:26.359Z,95.96
2022-10-11T07:59:26.332Z,95.03
2022-10-11T08:00:26.335Z,95.75
2022-10-11T08:01:26.473Z,95.86
2022-10-11T08:02:26.315Z,95.20
2022-10-11T08:03:26.291Z,95.09
2022-10-11T08:04:26.293Z,95.81
2022-10-11T08:05:26.269Z,94.68
2022-10-11T08:06:26.299Z,94.78
2022-10-11T08:07:26.250Z,95.50
2022-10-11T08:08:26.350Z,94.78
2022-10-11T08:09:26.230Z,95.36
2022-10-11T08:10:26.234Z,93.92
2022-10-11T08:11:26.206Z,94.23
2022-10-11T08:12:26.245Z,95.25
2022-10-11T08:13:26.227Z,94.74
2022-10-11T08:14:26.198Z,95.46
2022-10-11T08:15:26.164Z,95.56
2022-10-11T08:16:26.162Z,95.01
2022-10-11T08:17:26.168Z,94.90
2022-10-11T08:18:26.150Z,95.01
2022-10-11T08:19:26.129Z,94.70
2022-10-11T08:20:26.129Z,94.59
2022-10-11T08:21:26.098Z,93.77
2022-10-11T08:22:26.104Z,93.36
2022-10-11T08:23:26.118Z,94.34
2022-10-11T08:24:26.079Z,94.49
2022-10-11T08:25:26.056Z,95.37
2022-10-11T08:26:26.064Z,94.65
2022-10-11T08:27:26.040Z,94.76
2022-10-11T08:28:26.116Z,94.04
2022-10-11T08:29:26.011Z,94.45
2022-10-11T08:30:26.045Z,94.14
2022-10-11T08:31:25.994Z,94.30
2022-10-11T08:32:25.998Z,94.20
2022-10-11T08:33:25.984Z,95.12
2022-10-11T08:34:25.993Z,94.10
2022-10-11T08:35:25.953Z,93.59
2022-10-11T08:36:25.953Z,92.61
2022-10-11T08:37:25.930Z,92.35
2022-10-11T08:38:25.934Z,93.27
2022-10-11T08:39:25.959Z,94.26
2022-10-11T08:40:25.911Z,92.93
2022-10-11T08:41:25.887Z,92.72
2022-10-11T08:42:25.899Z,93.44
2022-10-11T08:43:25.870Z,93.02
2022-10-11T08:44:25.921Z,92.72
2022-10-11T08:45:25.865Z,93.44
2022-10-11T08:46:25.865Z,94.36
2022-10-11T08:47:25.823Z,93.29
2022-10-11T08:48:25.879Z,92.16
2022-10-11T08:49:25.800Z,91.86
2022-10-11T08:50:25.882Z,91.24
2022-10-11T08:51:25.787Z,91.14
2022-10-11T08:52:25.785Z,90.99
2022-10-11T08:53:25.757Z,92.22
2022-10-11T08:54:25.764Z,90.58
2022-10-11T08:55:25.736Z,89.72
2022-10-11T08:56:25.766Z,90.13
2022-10-11T08:57:25.718Z,89.42
2022-10-11T08:58:25.717Z,90.03
2022-10-11T08:59:25.695Z,89.92
2022-10-11T09:00:25.700Z,89.11
2022-10-11T09:01:25.730Z,89.62
2022-10-11T09:02:25.683Z,89.11
2022-10-11T09:03:25.648Z,89.72
2022-10-11T09:04:25.654Z,87.77
2022-10-11T09:05:25.640Z,86.85
2022-10-11T09:06:25.638Z,89.72
2022-10-11T09:07:25.636Z,90.44
2022-10-11T09:08:25.614Z,88.80
2022-10-11T09:09:25.589Z,89.31
2022-10-11T09:10:25.593Z,91.01
2022-10-11T09:11:25.569Z,91.22
2022-10-11T09:12:30.877Z,91.83
2022-10-11T09:13:25.547Z,89.78
2022-10-11T09:14:25.555Z,90.81
2022-10-11T09:15:25.533Z,88.65
2022-10-11T09:16:25.528Z,88.14
2022-10-11T09:17:25.503Z,87.94
2022-10-11T09:18:25.528Z,87.22
2022-10-11T09:19:25.483Z,87.73
2022-10-11T09:20:25.488Z,87.29
2022-10-11T09:21:25.461Z,87.24
2022-10-11T09:22:29.631Z,86.22
2022-10-11T09:23:25.470Z,86.32
2022-10-11T09:24:25.448Z,86.83
2022-10-11T09:25:25.419Z,87.14
2022-10-11T09:26:25.423Z,87.45
2022-10-11T09:27:49.856Z,87.24
2022-10-11T09:28:25.447Z,87.35
2022-10-11T09:29:25.398Z,84.99
2022-10-11T09:30:25.385Z,85.50
2022-10-11T09:31:25.362Z,86.32
2022-10-11T09:32:25.356Z,87.85
2022-10-11T09:33:25.331Z,88.26
2022-10-11T09:34:25.367Z,86.22
2022-10-11T09:35:25.308Z,87.35
2022-10-11T09:36:25.311Z,89.29
2022-10-11T09:37:25.286Z,88.94
2022-10-11T09:38:25.293Z,88.02
2022-10-11T09:39:25.268Z,88.33
2022-10-11T09:40:25.289Z,86.76
2022-10-11T09:41:25.247Z,85.83
2022-10-11T09:42:25.248Z,85.22
2022-10-11T09:43:25.227Z,86.14
2022-10-11T09:44:25.243Z,82.67
2022-10-11T09:45:25.246Z,84.30
2022-10-11T09:46:25.203Z,84.41
2022-10-11T09:47:25.183Z,86.04
2022-10-11T09:48:25.200Z,85.63
2022-10-11T09:49:25.398Z,86.04
2022-10-11T09:50:25.164Z,83.59
2022-10-11T09:51:25.173Z,81.85
2022-10-11T09:52:25.139Z,84.41
2022-10-11T09:53:25.120Z,84.77
2022-10-11T09:54:25.119Z,82.83
2022-10-11T09:55:25.099Z,84.67
2022-10-11T09:56:25.117Z,85.18
2022-10-11T09:57:25.073Z,84.98
2022-10-11T09:58:25.079Z,80.85
2022-10-11T09:59:25.062Z,80.96
2022-10-11T10:00:25.053Z,81.77
2022-10-11T10:01:25.109Z,80.75
2022-10-11T10:02:25.053Z,82.69
2022-10-11T10:03:25.017Z,81.02
2022-10-11T10:04:25.019Z,82.35
2022-10-11T10:05:24.992Z,82.14
2022-10-11T10:06:24.987Z,81.18
2022-10-11T10:07:25.003Z,78.64
2022-10-11T10:08:24.968Z,81.18
2022-10-11T10:09:24.957Z,80.98
2022-10-11T10:10:24.960Z,80.57
2022-10-11T10:11:24.940Z,79.45
2022-10-11T10:12:24.927Z,79.35
2022-10-11T10:13:24.924Z,80.57
2022-10-11T10:14:24.900Z,79.66
2022-10-11T10:15:24.882Z,76.09
2022-10-11T10:16:24.881Z,78.37
2022-10-11T10:17:24.859Z,80.78
2022-10-11T10:18:24.889Z,80.57
2022-10-11T10:19:24.997Z,77.14
2022-10-11T10:20:25.908Z,80.37
2022-10-11T10:21:24.818Z,77.82
2022-10-11T10:22:24.818Z,77.21
2022-10-11T10:23:24.791Z,79.72
2022-10-11T10:24:24.818Z,78.39
2022-10-11T10:25:24.770Z,77.58
2022-10-11T10:26:24.773Z,80.02
2022-10-11T10:27:24.748Z,78.87
2022-10-11T10:28:24.854Z,77.95
2022-10-11T10:29:24.761Z,77.55
2022-10-11T10:30:24.749Z,77.71
2022-10-11T10:31:24.711Z,78.83
2022-10-11T10:32:24.710Z,75.98
2022-10-11T10:33:24.681Z,75.06
2022-10-11T10:34:24.687Z,74.96
2022-10-11T10:35:24.682Z,75.57
2022-10-11T10:36:24.670Z,75.74
2022-10-11T10:37:24.644Z,75.02
2022-10-11T10:38:26.679Z,75.02
2022-10-11T10:39:24.619Z,71.36
2022-10-11T10:40:24.661Z,70.28
2022-10-11T10:41:24.597Z,73.54
2022-10-11T10:42:24.598Z,71.70
2022-10-11T10:43:24.578Z,72.48
2022-10-11T10:44:24.579Z,72.96
2022-10-11T10:45:24.552Z,70.48
2022-10-11T10:46:24.584Z,71.50
2022-10-11T10:47:24.536Z,69.06
2022-10-11T10:48:24.547Z,68.48
2022-10-11T10:49:51.934Z,67.77
2022-10-11T10:50:24.517Z,68.51
2022-10-11T10:51:24.513Z,71.56
2022-10-11T10:52:24.491Z,71.87
2022-10-11T10:53:24.470Z,71.36
2022-10-11T10:54:24.476Z,76.01
2022-10-11T10:55:24.456Z,74.24
2022-10-11T10:56:24.475Z,73.91
2022-10-11T10:57:24.423Z,73.19
2022-10-11T10:58:24.431Z,67.67
2022-10-11T10:59:24.408Z,68.89
2022-10-11T11:00:24.410Z,70.18
2022-10-11T11:01:24.466Z,69.78
2022-10-11T11:02:41.266Z,67.74
2022-10-11T11:03:24.366Z,66.22
2022-10-11T11:04:24.377Z,69.23
2022-10-11T11:05:24.344Z,65.07
2022-10-11T11:06:24.349Z,66.97
2022-10-11T11:07:24.356Z,68.26
2022-10-11T11:08:24.326Z,65.21
2022-10-11T11:09:24.294Z,62.60
2022-10-11T11:10:24.302Z,65.45
2022-10-11T11:11:24.277Z,60.10
2022-10-11T11:12:24.281Z,63.07
2022-10-11T11:13:24.271Z,63.58
2022-10-11T11:14:24.253Z,64.18
2022-10-11T11:15:31.271Z,61.04
2022-10-11T11:16:24.243Z,60.05
2022-10-11T11:17:24.209Z,62.82
2022-10-11T11:18:24.247Z,69.64
2022-10-11T11:19:24.198Z,64.55
2022-10-11T11:20:24.189Z,68.82
2022-10-11T11:21:24.170Z,68.62
2022-10-11T11:22:24.172Z,68.55
2022-10-11T11:23:24.145Z,69.36
2022-10-11T11:24:24.176Z,67.13
2022-10-11T11:25:24.133Z,67.63
2022-10-11T11:26:24.128Z,65.19
2022-10-11T11:27:24.100Z,68.96
2022-10-11T11:28:24.164Z,67.53
2022-10-11T11:29:24.107Z,67.22
2022-10-11T11:30:24.084Z,68.14
2022-10-11T11:31:24.057Z,65.47
2022-10-11T11:32:24.060Z,64.25
2022-10-11T11:33:24.034Z,63.64
2022-10-11T11:34:24.041Z,64.25
2022-10-11T11:35:24.038Z,62.93
2022-10-11T11:36:24.017Z,63.43
2022-10-11T11:37:23.997Z,69.09
2022-10-11T11:38:29.256Z,66.63
2022-10-11T11:39:23.978Z,65.58
2022-10-11T11:40:24.020Z,65.85
2022-10-11T11:41:23.953Z,64.27
2022-10-11T11:42:23.960Z,63.56
2022-10-11T11:43:23.927Z,63.59
2022-10-11T11:44:27.481Z,60.04
2022-10-11T11:45:23.915Z,61.90
2022-10-11T11:46:23.936Z,63.39
2022-10-11T11:47:23.885Z,63.96
2022-10-11T11:48:23.893Z,64.47
2022-10-11T11:49:23.863Z,62.14
2022-10-11T11:50:23.869Z,67.58
2022-10-11T11:51:26.502Z,64.11
2022-10-11T11:52:23.850Z,62.26
2022-10-11T11:53:23.822Z,62.84
2022-10-11T11:54:23.824Z,59.70
2022-10-11T11:55:23.798Z,59.19
2022-10-11T11:56:23.810Z,61.41
2022-10-11T11:57:23.801Z,54.64
2022-10-11T11:58:23.781Z,61.82
2022-10-11T11:59:23.755Z,60.17
2022-10-11T12:00:23.760Z,58.65
2022-10-11T12:01:27.601Z,59.74
2022-10-11T12:02:23.858Z,57.95
2022-10-11T12:03:23.714Z,58.65
2022-10-11T12:04:23.707Z,60.58
2022-10-11T12:05:23.707Z,57.85
2022-10-11T12:06:23.682Z,58.48
2022-10-11T12:07:23.689Z,57.78
2022-10-11T12:08:23.684Z,59.80
2022-10-11T12:09:23.665Z,59.49
2022-10-11T12:10:23.642Z,58.18
2022-10-11T12:11:23.639Z,58.71
2022-10-11T12:12:23.614Z,55.88
2022-10-11T12:13:26.304Z,54.08
2022-10-11T12:14:23.595Z,60.57
2022-10-11T12:15:23.594Z,59.45
2022-10-11T12:16:23.571Z,59.85
2022-10-11T12:17:23.581Z,59.25
2022-10-11T12:18:23.554Z,58.97
2022-10-11T12:19:23.581Z,59.07
2022-10-11T12:20:23.562Z,60.21
2022-10-11T12:21:23.537Z,59.61
2022-10-11T12:22:23.514Z,59.63
2022-10-11T12:23:23.507Z,63.21
2022-10-11T12:24:23.515Z,61.79
2022-10-11T12:25:23.486Z,61.62
2022-10-11T12:26:23.461Z,63.14
2022-10-11T12:27:23.467Z,62.13
2022-10-11T12:28:23.536Z,62.36
2022-10-11T12:29:28.178Z,62.26
2022-10-11T12:30:23.448Z,62.49
2022-10-11T12:31:23.435Z,63.51
2022-10-11T12:32:23.399Z,64.62
2022-10-11T12:33:23.402Z,64.04
2022-10-11T12:34:23.379Z,64.65
2022-10-11T12:35:23.407Z,68.32
2022-10-11T12:36:23.355Z,66.89
2022-10-11T12:37:23.394Z,65.57
2022-10-11T12:38:23.337Z,67.80
2022-10-11T12:39:23.336Z,67.53
2022-10-11T12:40:23.312Z,67.83
2022-10-11T12:41:23.336Z,69.77
2022-10-11T12:42:23.293Z,67.33
2022-10-11T12:43:23.307Z,67.13
2022-10-11T12:44:23.288Z,67.94
2022-10-11T12:45:23.276Z,68.68
2022-10-11T12:46:23.273Z,67.77
2022-10-11T12:47:23.258Z,69.90
2022-10-11T12:48:23.235Z,69.49
2022-10-11T12:49:23.228Z,68.48
2022-10-11T12:50:23.206Z,70.62
2022-10-11T12:51:23.206Z,73.40
2022-10-11T12:52:23.204Z,74.72